createdAt,value
2022-10-25T00:00:31.578Z,71.67
2022-10-25T00:01:31.934Z,71.47
2022-10-25T00:02:31.938Z,71.60
2022-10-25T00:03:32.085Z,71.91
2022-10-25T00:04:32.242Z,71.60
2022-10-25T00:05:32.414Z,71.60
2022-10-25T00:06:32.581Z,71.50
2022-10-25T00:07:32.731Z,71.70
2022-10-25T00:08:32.934Z,71.67
2022-10-25T00:09:33.092Z,71.70
2022-10-25T00:10:33.265Z,71.80
2022-10-25T00:11:33.423Z,71.60
2022-10-25T00:12:33.642Z,71.60
2022-10-25T00:13:33.796Z,71.60
2022-10-25T00:14:33.953Z,71.60
2022-10-25T00:15:34.113Z,71.50
2022-10-25T00:16:34.273Z,71.60
2022-10-25T00:17:34.462Z,71.50
2022-10-25T00:18:34.674Z,71.60
2022-10-25T00:19:34.803Z,71.40
2022-10-25T00:20:34.963Z,71.50
2022-10-25T00:21:35.123Z,71.60
2022-10-25T00:22:35.306Z,71.40
2022-10-25T00:23:35.473Z,71.50
2022-10-25T00:24:35.632Z,71.60
2022-10-25T00:25:35.793Z,71.70
2022-10-25T00:26:35.964Z,71.70
2022-10-25T00:27:36.145Z,71.60
2022-10-25T00:28:36.303Z,71.60
2022-10-25T00:29:36.463Z,71.91
2022-10-25T00:30:36.636Z,71.80
2022-10-25T00:31:36.813Z,71.60
2022-10-25T00:32:36.992Z,71.70
2022-10-25T00:33:37.154Z,71.70
2022-10-25T00:34:37.314Z,71.80
2022-10-25T00:35:37.472Z,71.80
2022-10-25T00:36:37.636Z,71.91
2022-10-25T00:37:37.854Z,71.91
2022-10-25T00:38:37.977Z,71.91
2022-10-25T00:39:38.133Z,71.91
2022-10-25T00:40:38.296Z,71.91
2022-10-25T00:41:38.463Z,71.91
2022-10-25T00:42:38.662Z,72.11
2022-10-25T00:43:38.797Z,71.91
2022-10-25T00:44:38.953Z,71.91
2022-10-25T00:45:39.120Z,71.80
2022-10-25T00:46:39.280Z,71.91
2022-10-25T00:47:39.453Z,72.00
2022-10-25T00:48:39.614Z,71.80
2022-10-25T00:49:39.773Z,71.91
2022-10-25T00:50:39.935Z,71.70
2022-10-25T00:51:40.085Z,71.47
2022-10-25T00:52:40.303Z,71.37
2022-10-25T00:53:40.467Z,71.37
2022-10-25T00:54:40.632Z,71.26
2022-10-25T00:55:40.786Z,71.17
2022-10-25T00:56:40.944Z,71.06
2022-10-25T00:57:41.113Z,71.17
2022-10-25T00:58:41.274Z,71.06
2022-10-25T00:59:41.433Z,71.06
2022-10-25T01:00:41.604Z,70.86
2022-10-25T01:01:41.898Z,70.73
2022-10-25T01:02:42.076Z,70.73
2022-10-25T01:03:42.116Z,70.73
2022-10-25T01:04:42.314Z,70.62
2022-10-25T01:05:42.465Z,70.53
2022-10-25T01:06:42.625Z,70.53
2022-10-25T01:07:42.911Z,70.42
2022-10-25T01:08:42.955Z,70.32
2022-10-25T01:09:43.113Z,70.32
2022-10-25T01:10:43.304Z,70.19
2022-10-25T01:11:43.464Z,70.09
2022-10-25T01:12:46.367Z,70.09
2022-10-25T01:13:44.830Z,70.09
2022-10-25T01:14:44.005Z,69.99
2022-10-25T01:15:44.167Z,69.89
2022-10-25T01:16:44.394Z,69.79
2022-10-25T01:17:44.565Z,69.69
2022-10-25T01:18:44.731Z,69.59
2022-10-25T01:19:44.894Z,69.38
2022-10-25T01:20:45.094Z,69.38
2022-10-25T01:21:45.255Z,69.35
2022-10-25T01:22:45.908Z,69.25
2022-10-25T01:23:45.587Z,69.25
2022-10-25T01:24:45.746Z,69.05
2022-10-25T01:25:45.905Z,69.05
2022-10-25T01:26:46.116Z,69.05
2022-10-25T01:27:46.333Z,68.95
2022-10-25T01:28:46.465Z,68.95
2022-10-25T01:29:46.636Z,69.15
2022-10-25T01:30:46.874Z,69.05
2022-10-25T01:31:46.995Z,69.05
2022-10-25T01:32:47.479Z,69.15
2022-10-25T01:33:47.336Z,69.25
2022-10-25T01:34:47.496Z,69.15
2022-10-25T01:35:47.665Z,69.15
2022-10-25T01:36:47.848Z,69.25
2022-10-25T01:37:48.403Z,69.05
2022-10-25T01:38:48.201Z,68.95
2022-10-25T01:39:48.356Z,68.95
2022-10-25T01:40:48.515Z,68.95
2022-10-25T01:41:48.695Z,68.85
2022-10-25T01:42:48.864Z,68.95
2022-10-25T01:43:49.017Z,68.75
2022-10-25T01:44:49.228Z,68.75
2022-10-25T01:45:49.379Z,68.85
2022-10-25T01:46:49.558Z,68.75
2022-10-25T01:47:49.874Z,68.65
2022-10-25T01:48:49.930Z,68.65
2022-10-25T01:49:50.066Z,68.65
2022-10-25T01:50:50.234Z,68.65
2022-10-25T01:51:50.438Z,68.65
2022-10-25T01:52:50.615Z,68.55
2022-10-25T01:53:50.756Z,68.44
2022-10-25T01:54:50.945Z,68.55
2022-10-25T01:55:51.104Z,68.44
2022-10-25T01:56:51.296Z,68.44
2022-10-25T01:57:51.456Z,68.44
2022-10-25T01:58:51.618Z,68.35
2022-10-25T01:59:51.777Z,68.24
2022-10-25T02:00:51.970Z,68.24
2022-10-25T02:01:52.204Z,68.24
2022-10-25T02:02:52.307Z,68.24
2022-10-25T02:03:52.484Z,68.24
2022-10-25T02:04:52.678Z,68.44
2022-10-25T02:05:52.837Z,68.35
2022-10-25T02:06:53.017Z,68.44
2022-10-25T02:07:53.183Z,68.44
2022-10-25T02:08:53.347Z,68.44
2022-10-25T02:09:53.562Z,68.55
2022-10-25T02:10:53.692Z,68.55
2022-10-25T02:11:53.857Z,68.55
2022-10-25T02:12:54.017Z,68.44
2022-10-25T02:13:54.179Z,68.55
2022-10-25T02:14:54.337Z,68.65
2022-10-25T02:15:54.498Z,68.65
2022-10-25T02:16:54.688Z,68.65
2022-10-25T02:17:54.840Z,68.75
2022-10-25T02:18:55.041Z,68.75
2022-10-25T02:19:55.198Z,68.65
2022-10-25T02:20:55.389Z,68.75
2022-10-25T02:21:55.557Z,68.85
2022-10-25T02:22:55.718Z,68.75
2022-10-25T02:23:55.877Z,68.88
2022-10-25T02:24:56.052Z,68.75
2022-10-25T02:25:56.209Z,68.75
2022-10-25T02:26:56.388Z,68.75
2022-10-25T02:27:56.586Z,68.65
2022-10-25T02:28:56.727Z,68.55
2022-10-25T02:29:56.887Z,68.55
2022-10-25T02:30:57.060Z,68.55
2022-10-25T02:31:57.227Z,68.55
2022-10-25T02:32:57.396Z,68.44
2022-10-25T02:33:57.558Z,68.44
2022-10-25T02:34:57.718Z,68.35
2022-10-25T02:35:57.879Z,68.35
2022-10-25T02:36:58.084Z,68.24
2022-10-25T02:37:58.239Z,68.35
2022-10-25T02:38:58.418Z,68.24
2022-10-25T02:39:58.585Z,68.24
2022-10-25T02:40:58.749Z,68.24
2022-10-25T02:41:58.924Z,68.15
2022-10-25T02:42:59.085Z,68.04
2022-10-25T02:43:59.240Z,68.04
2022-10-25T02:44:59.438Z,68.04
2022-10-25T02:45:59.601Z,67.84
2022-10-25T02:46:59.788Z,67.84
2022-10-25T02:47:59.939Z,67.84
2022-10-25T02:49:00.138Z,67.84
2022-10-25T02:50:00.299Z,67.94
2022-10-25T02:51:00.488Z,67.94
2022-10-25T02:52:00.668Z,67.84
2022-10-25T02:53:00.828Z,67.74
2022-10-25T02:54:00.988Z,67.84
2022-10-25T02:55:01.150Z,67.64
2022-10-25T02:56:01.309Z,67.64
2022-10-25T02:57:01.490Z,67.54
2022-10-25T02:58:01.649Z,67.44
2022-10-25T02:59:01.828Z,67.44
2022-10-25T03:00:02.062Z,67.54
2022-10-25T03:01:02.272Z,67.54
2022-10-25T03:02:02.441Z,67.44
2022-10-25T03:03:02.500Z,67.34
2022-10-25T03:04:02.659Z,67.24
2022-10-25T03:05:02.819Z,67.14
2022-10-25T03:06:02.976Z,67.03
2022-10-25T03:07:03.151Z,66.83
2022-10-25T03:08:03.310Z,66.83
2022-10-25T03:09:03.473Z,66.83
2022-10-25T03:10:03.632Z,66.74
2022-10-25T03:11:03.795Z,66.83
2022-10-25T03:12:03.961Z,67.03
2022-10-25T03:13:04.129Z,66.83
2022-10-25T03:14:04.295Z,66.63
2022-10-25T03:15:04.460Z,66.63
2022-10-25T03:16:04.609Z,66.63
2022-10-25T03:17:04.825Z,66.43
2022-10-25T03:18:04.977Z,66.63
2022-10-25T03:19:05.171Z,66.63
2022-10-25T03:20:05.330Z,66.63
2022-10-25T03:21:05.490Z,66.33
2022-10-25T03:22:05.666Z,66.23
2022-10-25T03:23:05.821Z,66.43
2022-10-25T03:24:05.980Z,66.33
2022-10-25T03:25:06.211Z,66.23
2022-10-25T03:26:06.308Z,66.33
2022-10-25T03:27:06.519Z,66.33
2022-10-25T03:28:06.670Z,66.23
2022-10-25T03:29:06.870Z,66.03
2022-10-25T03:30:07.029Z,65.93
2022-10-25T03:31:07.189Z,65.93
2022-10-25T03:32:07.361Z,66.13
2022-10-25T03:33:07.541Z,66.13
2022-10-25T03:34:07.692Z,65.93
2022-10-25T03:35:07.891Z,65.73
2022-10-25T03:36:08.069Z,65.93
2022-10-25T03:37:08.231Z,65.83
2022-10-25T03:38:08.401Z,65.93
2022-10-25T03:39:08.562Z,65.73
2022-10-25T03:40:08.722Z,65.62
2022-10-25T03:41:08.931Z,65.73
2022-10-25T03:42:09.090Z,65.73
2022-10-25T03:43:09.276Z,65.42
2022-10-25T03:44:09.421Z,65.53
2022-10-25T03:45:09.585Z,65.53
2022-10-25T03:46:09.757Z,65.42
2022-10-25T03:47:09.919Z,65.42
2022-10-25T03:48:10.081Z,65.62
2022-10-25T03:49:10.249Z,65.42
2022-10-25T03:50:10.411Z,65.33
2022-10-25T03:51:10.607Z,65.42
2022-10-25T03:52:10.730Z,65.53
2022-10-25T03:53:10.900Z,65.33
2022-10-25T03:54:11.052Z,65.33
2022-10-25T03:55:11.212Z,65.42
2022-10-25T03:56:11.402Z,65.33
2022-10-25T03:57:11.568Z,65.53
2022-10-25T03:58:11.722Z,65.33
2022-10-25T03:59:11.882Z,65.62
2022-10-25T04:00:12.042Z,65.53
2022-10-25T04:01:12.307Z,65.53
2022-10-25T04:02:12.413Z,65.62
2022-10-25T04:03:12.551Z,65.73
2022-10-25T04:04:12.702Z,65.62
2022-10-25T04:05:12.900Z,65.73
2022-10-25T04:06:13.072Z,65.73
2022-10-25T04:07:13.233Z,65.83
2022-10-25T04:08:13.408Z,65.93
2022-10-25T04:09:13.572Z,66.03
2022-10-25T04:10:13.733Z,66.03
2022-10-25T04:11:13.920Z,65.93
2022-10-25T04:12:14.073Z,66.03
2022-10-25T04:13:14.267Z,66.03
2022-10-25T04:14:14.425Z,66.03
2022-10-25T04:15:14.584Z,66.03
2022-10-25T04:16:17.053Z,66.03
2022-10-25T04:17:14.933Z,66.03
2022-10-25T04:18:15.083Z,66.03
2022-10-25T04:19:15.283Z,66.13
2022-10-25T04:20:15.522Z,66.13
2022-10-25T04:21:15.623Z,66.13
2022-10-25T04:22:15.784Z,66.13
2022-10-25T04:23:15.981Z,66.13
2022-10-25T04:24:16.134Z,66.23
2022-10-25T04:25:16.333Z,66.23
2022-10-25T04:26:16.512Z,66.33
2022-10-25T04:27:16.676Z,66.33
2022-10-25T04:28:16.844Z,66.43
2022-10-25T04:29:17.004Z,66.43
2022-10-25T04:30:17.194Z,66.56
2022-10-25T04:31:17.363Z,66.47
2022-10-25T04:32:17.523Z,66.47
2022-10-25T04:33:17.687Z,66.47
2022-10-25T04:34:17.847Z,66.47
2022-10-25T04:35:17.994Z,66.47
2022-10-25T04:36:18.213Z,66.56
2022-10-25T04:37:18.424Z,66.67
2022-10-25T04:38:18.554Z,66.67
2022-10-25T04:39:18.721Z,66.67
2022-10-25T04:40:22.501Z,66.87
2022-10-25T04:41:20.103Z,66.87
2022-10-25T04:42:19.294Z,66.97
2022-10-25T04:43:19.439Z,67.07
2022-10-25T04:44:19.594Z,67.17
2022-10-25T04:45:19.755Z,67.27
2022-10-25T04:46:19.966Z,67.17
2022-10-25T04:47:20.124Z,67.47
2022-10-25T04:48:20.284Z,67.27
2022-10-25T04:49:20.454Z,67.37
2022-10-25T04:50:20.614Z,67.27
2022-10-25T04:51:20.785Z,67.37
2022-10-25T04:52:20.946Z,67.17
2022-10-25T04:53:21.106Z,67.27
2022-10-25T04:54:21.300Z,67.27
2022-10-25T04:55:21.454Z,67.27
2022-10-25T04:56:21.681Z,67.27
2022-10-25T04:57:21.826Z,67.40
2022-10-25T04:58:22.015Z,67.50
2022-10-25T04:59:22.174Z,67.50
2022-10-25T05:00:22.337Z,67.71
2022-10-25T05:01:22.572Z,67.71
2022-10-25T05:02:22.685Z,67.80
2022-10-25T05:03:22.905Z,67.71
2022-10-25T05:04:23.025Z,67.71
2022-10-25T05:05:23.195Z,67.91
2022-10-25T05:06:23.383Z,68.14
2022-10-25T05:07:23.545Z,68.01
2022-10-25T05:08:23.705Z,67.94
2022-10-25T05:09:23.864Z,68.14
2022-10-25T05:10:24.066Z,68.24
2022-10-25T05:11:24.314Z,68.24
2022-10-25T05:12:24.406Z,68.24
2022-10-25T05:13:24.585Z,68.14
2022-10-25T05:14:24.746Z,68.14
2022-10-25T05:15:24.905Z,68.24
2022-10-25T05:16:25.097Z,68.34
2022-10-25T05:17:25.264Z,68.34
2022-10-25T05:18:25.427Z,68.44
2022-10-25T05:19:25.586Z,68.34
2022-10-25T05:20:25.755Z,68.34
2022-10-25T05:22:26.105Z,68.54
2022-10-25T05:23:26.257Z,68.34
2022-10-25T05:24:26.421Z,68.44
2022-10-25T05:25:26.586Z,68.54
2022-10-25T05:26:26.779Z,68.54
2022-10-25T05:27:26.919Z,68.65
2022-10-25T05:28:27.077Z,68.74
2022-10-25T05:29:27.245Z,68.74
2022-10-25T05:30:27.416Z,68.85
2022-10-25T05:31:27.609Z,68.85
2022-10-25T05:32:27.766Z,68.74
2022-10-25T05:33:27.938Z,68.85
2022-10-25T05:34:28.116Z,69.15
2022-10-25T05:35:28.296Z,69.15
2022-10-25T05:36:28.496Z,69.05
2022-10-25T05:37:28.637Z,69.05
2022-10-25T05:38:28.827Z,69.05
2022-10-25T05:39:28.996Z,68.95
2022-10-25T05:40:29.176Z,68.95
2022-10-25T05:41:31.888Z,69.05
2022-10-25T05:42:30.535Z,69.05
2022-10-25T05:43:29.716Z,68.95
2022-10-25T05:44:29.905Z,68.95
2022-10-25T05:45:30.106Z,68.85
2022-10-25T05:46:30.267Z,68.85
2022-10-25T05:47:30.417Z,68.95
2022-10-25T05:48:30.597Z,68.85
2022-10-25T05:49:30.776Z,68.74
2022-10-25T05:50:31.003Z,68.85
2022-10-25T05:51:35.704Z,68.85
2022-10-25T05:52:32.318Z,68.74
2022-10-25T05:53:31.498Z,68.74
2022-10-25T05:54:31.664Z,68.85
2022-10-25T05:55:31.848Z,68.65
2022-10-25T05:56:32.047Z,68.65
2022-10-25T05:57:32.217Z,68.54
2022-10-25T05:58:32.405Z,68.54
2022-10-25T05:59:32.547Z,68.51
2022-10-25T06:00:32.762Z,68.51
2022-10-25T06:01:33.008Z,68.51
2022-10-25T06:02:33.141Z,68.51
2022-10-25T06:03:33.248Z,68.51
2022-10-25T06:04:33.427Z,68.51
2022-10-25T06:05:33.587Z,68.51
2022-10-25T06:06:33.778Z,68.51
2022-10-25T06:07:33.955Z,68.51
2022-10-25T06:08:34.141Z,68.61
2022-10-25T06:09:34.335Z,68.61
2022-10-25T06:10:34.525Z,68.51
2022-10-25T06:11:34.743Z,68.51
2022-10-25T06:12:34.867Z,68.51
2022-10-25T06:13:35.048Z,68.41
2022-10-25T06:14:35.238Z,68.41
2022-10-25T06:15:35.418Z,68.41
2022-10-25T06:16:35.616Z,68.28
2022-10-25T06:17:35.790Z,68.28
2022-10-25T06:18:35.948Z,68.28
2022-10-25T06:19:36.099Z,68.08
2022-10-25T06:20:36.325Z,68.18
2022-10-25T06:21:36.490Z,68.08
2022-10-25T06:22:36.609Z,67.97
2022-10-25T06:23:36.770Z,67.88
2022-10-25T06:24:36.928Z,67.88
2022-10-25T06:25:37.097Z,67.77
2022-10-25T06:26:37.268Z,67.77
2022-10-25T06:27:37.421Z,67.64
2022-10-25T06:28:37.602Z,67.54
2022-10-25T06:29:37.778Z,67.64
2022-10-25T06:30:37.939Z,67.44
2022-10-25T06:31:38.118Z,67.44
2022-10-25T06:32:38.277Z,67.24
2022-10-25T06:33:38.419Z,67.34
2022-10-25T06:34:38.610Z,67.14
2022-10-25T06:35:38.779Z,67.11
2022-10-25T06:36:38.979Z,67.11
2022-10-25T06:37:39.153Z,66.91
2022-10-25T06:38:39.339Z,67.00
2022-10-25T06:39:39.538Z,66.71
2022-10-25T06:40:39.689Z,66.60
2022-10-25T06:41:39.909Z,66.37
2022-10-25T06:42:40.060Z,66.07
2022-10-25T06:43:40.279Z,65.97
2022-10-25T06:44:40.419Z,66.07
2022-10-25T06:45:40.599Z,66.17
2022-10-25T06:47:11.684Z,65.87
2022-10-25T06:47:41.959Z,65.87
2022-10-25T06:48:41.110Z,65.77
2022-10-25T06:49:41.290Z,65.77
2022-10-25T06:50:41.470Z,65.67
2022-10-25T06:51:41.669Z,65.56
2022-10-25T06:52:41.819Z,65.56
2022-10-25T06:53:41.999Z,65.87
2022-10-25T06:54:42.193Z,65.67
2022-10-25T06:55:42.363Z,65.56
2022-10-25T06:56:42.561Z,65.47
2022-10-25T06:57:42.710Z,65.36
2022-10-25T06:58:42.890Z,65.56
2022-10-25T06:59:43.071Z,65.56
2022-10-25T07:00:46.021Z,65.47
2022-10-25T07:01:44.547Z,65.64
2022-10-25T07:02:43.629Z,65.73
2022-10-25T07:03:43.834Z,65.64
2022-10-25T07:04:44.010Z,65.53
2022-10-25T07:05:44.140Z,65.53
2022-10-25T07:06:44.340Z,65.53
2022-10-25T07:07:44.688Z,65.64
2022-10-25T07:08:44.661Z,65.73
2022-10-25T07:09:44.819Z,65.53
2022-10-25T07:10:45.009Z,65.41
2022-10-25T07:11:45.211Z,65.41
2022-10-25T07:12:45.352Z,65.30
2022-10-25T07:13:45.529Z,65.10
2022-10-25T07:14:45.713Z,65.20
2022-10-25T07:15:45.880Z,65.10
2022-10-25T07:16:46.073Z,65.00
2022-10-25T07:17:46.766Z,64.90
2022-10-25T07:18:46.439Z,64.80
2022-10-25T07:19:46.582Z,64.90
2022-10-25T07:20:46.771Z,64.90
2022-10-25T07:21:46.961Z,64.90
2022-10-25T07:22:47.114Z,64.80
2022-10-25T07:23:47.335Z,64.70
2022-10-25T07:24:47.471Z,64.50
2022-10-25T07:25:47.692Z,64.60
2022-10-25T07:26:47.851Z,64.70
2022-10-25T07:27:48.401Z,64.40
2022-10-25T07:28:48.198Z,64.20
2022-10-25T07:29:48.379Z,64.30
2022-10-25T07:30:48.563Z,63.96
2022-10-25T07:31:48.751Z,63.87
2022-10-25T07:32:48.910Z,63.87
2022-10-25T07:33:49.099Z,63.76
2022-10-25T07:34:49.305Z,63.96
2022-10-25T07:36:05.891Z,63.87
2022-10-25T07:36:50.654Z,63.76
2022-10-25T07:37:50.032Z,63.87
2022-10-25T07:38:49.962Z,64.07
2022-10-25T07:39:50.177Z,63.87
2022-10-25T07:40:50.322Z,63.96
2022-10-25T07:41:50.522Z,63.76
2022-10-25T07:42:50.672Z,63.53
2022-10-25T07:43:50.853Z,63.53
2022-10-25T07:44:51.045Z,63.73
2022-10-25T07:45:51.223Z,63.53
2022-10-25T07:46:51.432Z,63.53
2022-10-25T07:47:51.600Z,63.73
2022-10-25T07:48:51.784Z,63.33
2022-10-25T07:49:51.983Z,62.93
2022-10-25T07:50:52.133Z,63.33
2022-10-25T07:51:52.335Z,63.64
2022-10-25T07:52:52.492Z,63.64
2022-10-25T07:53:52.654Z,63.93
2022-10-25T07:54:52.804Z,64.34
2022-10-25T07:55:52.992Z,64.43
2022-10-25T07:56:53.208Z,64.24
2022-10-25T07:57:53.369Z,64.54
2022-10-25T07:58:53.504Z,64.87
2022-10-25T07:59:53.685Z,65.47
2022-10-25T08:00:53.882Z,65.37
2022-10-25T08:01:54.075Z,65.37
2022-10-25T08:02:54.228Z,65.27
2022-10-25T08:03:54.390Z,65.37
2022-10-25T08:04:54.577Z,65.37
2022-10-25T08:05:54.756Z,65.88
2022-10-25T08:06:54.954Z,66.31
2022-10-25T08:07:55.101Z,66.61
2022-10-25T08:08:55.318Z,66.71
2022-10-25T08:09:55.491Z,66.41
2022-10-25T08:10:55.638Z,66.81
2022-10-25T08:11:55.852Z,66.91
2022-10-25T08:12:55.993Z,66.81
2022-10-25T08:13:56.172Z,67.01
2022-10-25T08:14:56.356Z,67.11
2022-10-25T08:15:56.539Z,67.21
2022-10-25T08:16:56.727Z,67.01
2022-10-25T08:17:56.888Z,66.88
2022-10-25T08:18:57.067Z,66.78
2022-10-25T08:19:57.246Z,66.58
2022-10-25T08:21:02.481Z,66.67
2022-10-25T08:21:58.608Z,66.58
2022-10-25T08:22:57.816Z,66.17
2022-10-25T08:23:57.966Z,66.44
2022-10-25T08:24:58.167Z,66.24
2022-10-25T08:25:58.336Z,66.01
2022-10-25T08:26:58.538Z,65.81
2022-10-25T08:27:58.686Z,65.78
2022-10-25T08:28:58.845Z,65.28
2022-10-25T08:29:59.028Z,65.05
2022-10-25T08:30:59.226Z,64.51
2022-10-25T08:31:59.410Z,64.62
2022-10-25T08:32:59.595Z,64.12
2022-10-25T08:33:59.765Z,63.71
2022-10-25T08:34:59.916Z,64.42
2022-10-25T08:36:00.067Z,63.92
2022-10-25T08:37:00.269Z,63.92
2022-10-25T08:38:00.427Z,63.39
2022-10-25T08:39:00.576Z,63.71
2022-10-25T08:40:00.736Z,63.71
2022-10-25T08:41:00.935Z,63.51
2022-10-25T08:42:01.090Z,63.08
2022-10-25T08:43:01.237Z,62.75
2022-10-25T08:44:01.430Z,62.35
2022-10-25T08:45:01.603Z,61.87
2022-10-25T08:46:01.797Z,59.31
2022-10-25T08:47:01.987Z,58.78
2022-10-25T08:48:02.137Z,58.81
2022-10-25T08:49:02.318Z,58.71
2022-10-25T08:50:02.488Z,59.44
2022-10-25T08:51:02.676Z,59.83
2022-10-25T08:52:02.877Z,60.06
2022-10-25T08:53:03.035Z,60.16
2022-10-25T08:54:03.214Z,60.57
2022-10-25T08:55:05.691Z,59.97
2022-10-25T08:56:15.985Z,60.06
2022-10-25T08:57:15.116Z,60.53
2022-10-25T08:58:04.889Z,60.33
2022-10-25T08:59:04.038Z,60.03
2022-10-25T09:00:04.239Z,59.83
2022-10-25T09:01:04.515Z,59.74
2022-10-25T09:02:04.696Z,60.53
2022-10-25T09:03:04.752Z,59.94
2022-10-25T09:04:04.920Z,59.77
2022-10-25T09:05:05.100Z,59.94
2022-10-25T09:06:05.268Z,59.51
2022-10-25T09:07:05.448Z,59.28
2022-10-25T09:08:05.589Z,58.10
2022-10-25T09:09:05.764Z,56.25
2022-10-25T09:10:05.929Z,55.10
2022-10-25T09:11:06.108Z,53.16
2022-10-25T09:12:06.311Z,51.37
2022-10-25T09:13:10.503Z,49.02
2022-10-25T09:14:06.650Z,47.64
2022-10-25T09:15:06.790Z,46.61
2022-10-25T09:16:06.983Z,45.30
2022-10-25T09:17:07.171Z,44.76
2022-10-25T09:18:07.351Z,43.88
2022-10-25T09:19:07.528Z,43.56
2022-10-25T09:20:07.790Z,43.27
2022-10-25T09:21:13.415Z,43.56
2022-10-25T09:22:09.070Z,43.68
2022-10-25T09:23:08.323Z,44.83
2022-10-25T09:24:08.422Z,46.06
2022-10-25T09:25:08.618Z,46.92
2022-10-25T09:26:08.773Z,48.45
2022-10-25T09:27:08.962Z,48.97
2022-10-25T09:28:09.140Z,49.09
2022-10-25T09:29:09.289Z,49.63
2022-10-25T09:30:09.443Z,50.45
2022-10-25T09:31:09.593Z,51.07
2022-10-25T09:32:09.810Z,51.79
2022-10-25T09:33:10.013Z,52.12
2022-10-25T09:34:10.153Z,52.64
2022-10-25T09:35:10.349Z,53.06
2022-10-25T09:36:10.524Z,53.59
2022-10-25T09:37:10.713Z,53.99
2022-10-25T09:38:10.884Z,54.41
2022-10-25T09:39:14.939Z,55.01
2022-10-25T09:40:12.213Z,55.54
2022-10-25T09:41:11.403Z,55.16
2022-10-25T09:42:11.585Z,55.86
2022-10-25T09:43:11.748Z,56.48
2022-10-25T09:44:11.964Z,56.98
2022-10-25T09:45:12.104Z,57.01
2022-10-25T09:46:12.298Z,56.91
2022-10-25T09:47:12.495Z,57.34
2022-10-25T09:48:12.634Z,57.64
2022-10-25T09:49:12.814Z,57.84
2022-10-25T09:50:12.996Z,58.04
2022-10-25T09:51:13.178Z,58.56
2022-10-25T09:52:13.382Z,58.26
2022-10-25T09:53:13.515Z,58.56
2022-10-25T09:54:13.692Z,58.47
2022-10-25T09:55:13.869Z,58.67
2022-10-25T09:56:14.096Z,58.56
2022-10-25T09:57:14.247Z,58.67
2022-10-25T09:58:14.395Z,58.99
2022-10-25T09:59:14.575Z,58.89
2022-10-25T10:00:14.781Z,59.36
2022-10-25T10:01:15.085Z,59.06
2022-10-25T10:02:15.193Z,58.86
2022-10-25T10:03:15.288Z,58.56
2022-10-25T10:04:15.474Z,58.47
2022-10-25T10:05:15.669Z,58.86
2022-10-25T10:06:15.847Z,58.99
2022-10-25T10:07:15.986Z,59.19
2022-10-25T10:08:16.170Z,58.89
2022-10-25T10:09:16.346Z,58.69
2022-10-25T10:10:16.540Z,58.49
2022-10-25T10:11:16.725Z,58.59
2022-10-25T10:12:16.915Z,59.42
2022-10-25T10:13:17.059Z,59.42
2022-10-25T10:14:17.247Z,59.72
2022-10-25T10:15:17.427Z,59.82
2022-10-25T10:16:17.627Z,59.95
2022-10-25T10:17:17.760Z,59.75
2022-10-25T10:18:17.950Z,59.85
2022-10-25T10:19:18.107Z,59.98
2022-10-25T10:20:18.285Z,60.18
2022-10-25T10:21:18.487Z,60.48
2022-10-25T10:22:18.637Z,61.08
2022-10-25T10:23:18.828Z,60.58
2022-10-25T10:24:18.990Z,60.38
2022-10-25T10:25:19.171Z,60.78
2022-10-25T10:26:19.388Z,60.48
2022-10-25T10:27:19.547Z,60.28
2022-10-25T10:28:19.680Z,60.58
2022-10-25T10:29:19.867Z,60.38
2022-10-25T10:30:20.048Z,60.48
2022-10-25T10:31:20.248Z,60.88
2022-10-25T10:32:20.425Z,60.48
2022-10-25T10:33:20.590Z,60.58
2022-10-25T10:34:20.790Z,60.38
2022-10-25T10:35:20.960Z,60.18
2022-10-25T10:36:21.169Z,60.08
2022-10-25T10:37:21.308Z,60.38
2022-10-25T10:38:21.500Z,60.58
2022-10-25T10:39:21.682Z,60.55
2022-10-25T10:40:21.846Z,59.85
2022-10-25T10:41:22.042Z,59.95
2022-10-25T10:42:22.248Z,60.05
2022-10-25T10:43:22.371Z,60.22
2022-10-25T10:44:22.558Z,59.92
2022-10-25T10:45:22.731Z,59.72
2022-10-25T10:46:22.920Z,58.32
2022-10-25T10:47:23.101Z,58.59
2022-10-25T10:48:23.259Z,59.19
2022-10-25T10:49:23.440Z,58.69
2022-10-25T10:50:23.620Z,58.47
2022-10-25T10:51:43.132Z,58.17
2022-10-25T10:52:24.962Z,58.26
2022-10-25T10:53:24.151Z,56.87
2022-10-25T10:54:24.384Z,56.87
2022-10-25T10:55:24.521Z,57.07
2022-10-25T10:56:24.740Z,56.77
2022-10-25T10:57:24.873Z,56.87
2022-10-25T10:58:25.050Z,56.46
2022-10-25T10:59:25.238Z,57.37
2022-10-25T11:00:25.426Z,56.67
2022-10-25T11:01:25.675Z,56.77
2022-10-25T11:02:26.036Z,57.14
2022-10-25T11:03:25.951Z,56.94
2022-10-25T11:04:26.380Z,56.74
2022-10-25T11:05:26.253Z,56.24
2022-10-25T11:06:26.465Z,56.74
2022-10-25T11:07:26.655Z,56.71
2022-10-25T11:08:26.829Z,56.61
2022-10-25T11:09:26.961Z,56.61
2022-10-25T11:10:27.145Z,56.61
2022-10-25T11:11:27.362Z,55.79
2022-10-25T11:12:27.501Z,55.69
2022-10-25T11:13:27.672Z,55.09
2022-10-25T11:14:27.862Z,55.36
2022-10-25T11:15:28.044Z,55.46
2022-10-25T11:16:28.252Z,55.66
2022-10-25T11:17:28.393Z,55.16
2022-10-25T11:18:28.576Z,54.74
2022-10-25T11:19:28.761Z,54.83
2022-10-25T11:20:28.941Z,54.74
2022-10-25T11:21:29.143Z,54.21
2022-10-25T11:22:32.190Z,53.91
2022-10-25T11:23:29.477Z,53.61
2022-10-25T11:24:29.663Z,53.52
2022-10-25T11:25:29.831Z,54.01
2022-10-25T11:26:29.974Z,54.01
2022-10-25T11:27:33.034Z,54.19
2022-10-25T11:28:31.350Z,53.89
2022-10-25T11:29:30.534Z,53.29
2022-10-25T11:30:30.733Z,53.19
2022-10-25T11:31:30.874Z,52.79
2022-10-25T11:32:31.090Z,52.79
2022-10-25T11:33:31.244Z,52.79
2022-10-25T11:34:31.435Z,52.99
2022-10-25T11:35:31.614Z,52.69
2022-10-25T11:36:31.815Z,52.99
2022-10-25T11:37:31.989Z,52.89
2022-10-25T11:38:32.173Z,52.79
2022-10-25T11:39:32.363Z,52.89
2022-10-25T11:40:32.548Z,52.29
2022-10-25T11:41:32.738Z,52.09
2022-10-25T11:42:32.899Z,51.89
2022-10-25T11:43:33.075Z,52.09
2022-10-25T11:44:33.257Z,52.29
2022-10-25T11:45:33.435Z,52.09
2022-10-25T11:46:33.635Z,51.10
2022-10-25T11:47:33.809Z,51.59
2022-10-25T11:48:33.987Z,52.00
2022-10-25T11:49:34.167Z,51.79
2022-10-25T11:50:34.377Z,51.70
2022-10-25T11:51:34.527Z,51.79
2022-10-25T11:52:34.677Z,52.22
2022-10-25T11:53:34.858Z,51.92
2022-10-25T11:54:35.037Z,52.02
2022-10-25T11:55:35.221Z,51.62
2022-10-25T11:56:35.419Z,51.72
2022-10-25T11:57:35.617Z,52.22
2022-10-25T11:58:35.738Z,52.02
2022-10-25T11:59:35.917Z,51.82
2022-10-25T12:00:36.100Z,52.02
2022-10-25T12:01:36.342Z,52.42
2022-10-25T12:02:36.555Z,52.02
2022-10-25T12:03:36.620Z,52.42
2022-10-25T12:04:37.993Z,51.82
2022-10-25T12:05:36.988Z,51.52
2022-10-25T12:06:37.148Z,51.52
2022-10-25T12:07:37.299Z,51.42
2022-10-25T12:08:37.485Z,51.22
2022-10-25T12:09:37.665Z,51.54
2022-10-25T12:10:37.879Z,51.54
2022-10-25T12:11:38.022Z,51.45
2022-10-25T12:12:38.179Z,51.54
2022-10-25T12:13:38.329Z,51.65
2022-10-25T12:14:38.559Z,52.14
2022-10-25T12:15:38.699Z,52.02
2022-10-25T12:16:38.891Z,51.92
2022-10-25T12:17:39.041Z,51.62
2022-10-25T12:18:39.231Z,51.50
2022-10-25T12:19:39.380Z,51.50
2022-10-25T12:20:39.648Z,51.20
2022-10-25T12:21:39.751Z,51.17
2022-10-25T12:22:39.894Z,50.78
2022-10-25T12:23:40.070Z,50.27
2022-10-25T12:24:40.251Z,50.45
2022-10-25T12:25:40.440Z,50.55
2022-10-25T12:26:40.647Z,50.35
2022-10-25T12:27:40.771Z,49.95
2022-10-25T12:28:40.991Z,49.98
2022-10-25T12:29:41.112Z,49.88
2022-10-25T12:30:41.302Z,49.58
2022-10-25T12:31:41.495Z,49.98
2022-10-25T12:32:41.642Z,50.50
2022-10-25T12:33:41.832Z,50.30
2022-10-25T12:34:42.018Z,50.40
2022-10-25T12:35:42.193Z,50.80
2022-10-25T12:36:42.392Z,50.92
2022-10-25T12:37:44.108Z,51.22
2022-10-25T12:38:42.719Z,50.92
2022-10-25T12:39:42.892Z,51.12
2022-10-25T12:40:43.073Z,51.54
2022-10-25T12:41:43.312Z,51.84
2022-10-25T12:42:43.447Z,51.65
2022-10-25T12:43:43.614Z,51.84
2022-10-25T12:44:43.797Z,51.84
2022-10-25T12:45:43.961Z,52.14
2022-10-25T12:46:44.128Z,52.25
2022-10-25T12:47:44.296Z,52.57
2022-10-25T12:48:44.483Z,52.67
2022-10-25T12:49:44.664Z,52.47
2022-10-25T12:50:44.843Z,52.37
2022-10-25T12:51:45.043Z,52.49
2022-10-25T12:52:45.506Z,53.09
2022-10-25T12:53:45.364Z,53.19
2022-10-25T12:54:45.523Z,53.29
2022-10-25T12:55:45.675Z,53.59